HAZ1168 ZLLL-ZUUU
Flight info
| Callsign | HAZ1168 |
|---|---|
| Flight time | 1h 5m |
| Altitude | 24600 |
| Route | IRMUB4Z IRMUB B330 MEXAD MEXAD2E |
| Aircraft | A346/H-SDE2E3FGHIJ3J4J5M1RWXY/LB1D1 |
Departure
| Time | 2026-04-25 04:34 |
|---|---|
| Airport | Lanzhou Zhongchuan International Airport (ZLLL) |
Arrival
| Time | 2026-04-25 05:39 |
|---|---|
| Airport | Chengdu Shuangliu International Airport (ZUUU) |
| Time | Latitude | Longitude | Altitude | Speed | Heading |
|---|---|---|---|---|---|
| 2026-04-25 04:12 | 36.52354 | 103.63767 | 6410 ft | 0 kts | 264° |
| 2026-04-25 04:21 | 36.52355 | 103.63776 | 6410 ft | 2 kts | 268° |
| 2026-04-25 04:22 | 36.52356 | 103.63795 | 6410 ft | 2 kts | 268° |
| 2026-04-25 04:22 | 36.52356 | 103.63813 | 6410 ft | 2 kts | 264° |
| 2026-04-25 04:22 | 36.52358 | 103.63831 | 6410 ft | 2 kts | 263° |
| 2026-04-25 04:22 | 36.52360 | 103.63850 | 6410 ft | 2 kts | 264° |
| 2026-04-25 04:23 | 36.52362 | 103.63869 | 6410 ft | 2 kts | 264° |
| 2026-04-25 04:23 | 36.52363 | 103.63887 | 6410 ft | 2 kts | 264° |
| 2026-04-25 04:23 | 36.52365 | 103.63906 | 6410 ft | 2 kts | 264° |
| 2026-04-25 04:23 | 36.52367 | 103.63924 | 6410 ft | 2 kts | 264° |
| 2026-04-25 04:24 | 36.52368 | 103.63943 | 6410 ft | 2 kts | 264° |
| 2026-04-25 04:24 | 36.52370 | 103.63961 | 6410 ft | 1 kts | 264° |
| 2026-04-25 04:24 | 36.52371 | 103.63973 | 6410 ft | 2 kts | 261° |
| 2026-04-25 04:24 | 36.52375 | 103.63991 | 6410 ft | 2 kts | 242° |
| 2026-04-25 04:25 | 36.52383 | 103.64006 | 6410 ft | 2 kts | 227° |
| 2026-04-25 04:25 | 36.52394 | 103.64018 | 6410 ft | 2 kts | 212° |
| 2026-04-25 04:25 | 36.52408 | 103.64027 | 6410 ft | 2 kts | 198° |
| 2026-04-25 04:25 | 36.52422 | 103.64030 | 6410 ft | 2 kts | 183° |
| 2026-04-25 04:26 | 36.52430 | 103.64030 | 6410 ft | 1 kts | 176° |
| 2026-04-25 04:26 | 36.52432 | 103.64030 | 6410 ft | 0 kts | 176° |
| 2026-04-25 04:27 | 36.52413 | 103.64030 | 6410 ft | 10 kts | 181° |
| 2026-04-25 04:28 | 36.52326 | 103.64031 | 6410 ft | 12 kts | 163° |
| 2026-04-25 04:28 | 36.52263 | 103.64105 | 6410 ft | 12 kts | 124° |
| 2026-04-25 04:28 | 36.52246 | 103.64209 | 6410 ft | 12 kts | 92° |
| 2026-04-25 04:28 | 36.52258 | 103.64311 | 6410 ft | 9 kts | 57° |
| 2026-04-25 04:29 | 36.52307 | 103.64326 | 6410 ft | 8 kts | 352° |
| 2026-04-25 04:29 | 36.52384 | 103.64318 | 6410 ft | 14 kts | 356° |
| 2026-04-25 04:29 | 36.52513 | 103.64309 | 6410 ft | 21 kts | 357° |
| 2026-04-25 04:29 | 36.52681 | 103.64298 | 6410 ft | 24 kts | 357° |
| 2026-04-25 04:30 | 36.52851 | 103.64288 | 6410 ft | 24 kts | 358° |
| 2026-04-25 04:30 | 36.53023 | 103.64276 | 6410 ft | 24 kts | 357° |
| 2026-04-25 04:30 | 36.53198 | 103.64265 | 6410 ft | 25 kts | 356° |
| 2026-04-25 04:30 | 36.53374 | 103.64254 | 6410 ft | 25 kts | 357° |
| 2026-04-25 04:31 | 36.53547 | 103.64243 | 6410 ft | 24 kts | 358° |
| 2026-04-25 04:31 | 36.53707 | 103.64233 | 6410 ft | 22 kts | 356° |
| 2026-04-25 04:31 | 36.53858 | 103.64222 | 6410 ft | 18 kts | 358° |
| 2026-04-25 04:31 | 36.53940 | 103.64234 | 6410 ft | 7 kts | 44° |
| 2026-04-25 04:32 | 36.53954 | 103.64306 | 6410 ft | 9 kts | 88° |
| 2026-04-25 04:32 | 36.53956 | 103.64391 | 6410 ft | 8 kts | 99° |
| 2026-04-25 04:32 | 36.53936 | 103.64417 | 6410 ft | 3 kts | 156° |
| 2026-04-25 04:32 | 36.53927 | 103.64418 | 6410 ft | 0 kts | 175° |
| 2026-04-25 04:33 | 36.53880 | 103.64423 | 6410 ft | 31 kts | 176° |
| 2026-04-25 04:33 | 36.53435 | 103.64451 | 6410 ft | 95 kts | 177° |
| 2026-04-25 04:33 | 36.52568 | 103.64507 | 6410 ft | 150 kts | 178° |
| 2026-04-25 04:33 | 36.51370 | 103.64575 | 6463 ft | 189 kts | 179° |
| 2026-04-25 04:34 | 36.50077 | 103.64665 | 6981 ft | 187 kts | 176° |
| 2026-04-25 04:34 | 36.48786 | 103.65013 | 7378 ft | 197 kts | 154° |
| 2026-04-25 04:34 | 36.47633 | 103.65957 | 7866 ft | 202 kts | 145° |
| 2026-04-25 04:34 | 36.46503 | 103.66990 | 8393 ft | 203 kts | 144° |
| 2026-04-25 04:35 | 36.45373 | 103.68031 | 8828 ft | 206 kts | 144° |
| 2026-04-25 04:35 | 36.44218 | 103.69093 | 9256 ft | 209 kts | 144° |
| 2026-04-25 04:35 | 36.43037 | 103.70174 | 9694 ft | 211 kts | 144° |
| 2026-04-25 04:35 | 36.41827 | 103.71278 | 9984 ft | 223 kts | 144° |
| 2026-04-25 04:36 | 36.40545 | 103.72448 | 10237 ft | 237 kts | 144° |
| 2026-04-25 04:36 | 36.39159 | 103.73712 | 10500 ft | 252 kts | 143° |
| 2026-04-25 04:36 | 36.37779 | 103.75108 | 10753 ft | 267 kts | 139° |
| 2026-04-25 04:36 | 36.36333 | 103.76700 | 10984 ft | 287 kts | 138° |
| 2026-04-25 04:37 | 36.34797 | 103.78410 | 11285 ft | 305 kts | 138° |
| 2026-04-25 04:37 | 36.33171 | 103.80218 | 11591 ft | 323 kts | 138° |
| 2026-04-25 04:37 | 36.31455 | 103.82123 | 11898 ft | 342 kts | 138° |
| 2026-04-25 04:37 | 36.29645 | 103.84130 | 12164 ft | 360 kts | 139° |
| 2026-04-25 04:38 | 36.27726 | 103.86258 | 12443 ft | 378 kts | 138° |
| 2026-04-25 04:38 | 36.25722 | 103.88474 | 12813 ft | 392 kts | 138° |
| 2026-04-25 04:38 | 36.23699 | 103.90712 | 13488 ft | 396 kts | 138° |
| 2026-04-25 04:38 | 36.21626 | 103.93005 | 14255 ft | 399 kts | 138° |
| 2026-04-25 04:39 | 36.19556 | 103.95291 | 14977 ft | 403 kts | 138° |
| 2026-04-25 04:39 | 36.17482 | 103.97575 | 15666 ft | 407 kts | 139° |
| 2026-04-25 04:39 | 36.15359 | 103.99909 | 16364 ft | 411 kts | 138° |
| 2026-04-25 04:39 | 36.13202 | 104.02280 | 17071 ft | 415 kts | 138° |
| 2026-04-25 04:40 | 36.11043 | 104.04656 | 17775 ft | 419 kts | 139° |
| 2026-04-25 04:40 | 36.08845 | 104.07073 | 18439 ft | 424 kts | 138° |
| 2026-04-25 04:40 | 36.06640 | 104.09496 | 19051 ft | 429 kts | 138° |
| 2026-04-25 04:40 | 36.04425 | 104.11929 | 19653 ft | 434 kts | 139° |
| 2026-04-25 04:41 | 36.02160 | 104.14417 | 20238 ft | 440 kts | 138° |
| 2026-04-25 04:41 | 35.99853 | 104.16946 | 20796 ft | 446 kts | 138° |
| 2026-04-25 04:41 | 35.97529 | 104.19495 | 21349 ft | 451 kts | 138° |
| 2026-04-25 04:41 | 35.95159 | 104.22092 | 21896 ft | 457 kts | 138° |
| 2026-04-25 04:42 | 35.92772 | 104.24708 | 22450 ft | 462 kts | 138° |
| 2026-04-25 04:42 | 35.90368 | 104.27336 | 23000 ft | 466 kts | 138° |
| 2026-04-25 04:42 | 35.87948 | 104.29981 | 23559 ft | 471 kts | 138° |
| 2026-04-25 04:42 | 35.85431 | 104.32593 | 24099 ft | 475 kts | 145° |
| 2026-04-25 04:43 | 35.82506 | 104.34478 | 24574 ft | 477 kts | 161° |
| 2026-04-25 04:43 | 35.79309 | 104.35402 | 24778 ft | 475 kts | 176° |
| 2026-04-25 04:43 | 35.75966 | 104.35518 | 24802 ft | 479 kts | 182° |
| 2026-04-25 04:43 | 35.72653 | 104.35504 | 24791 ft | 481 kts | 182° |
| 2026-04-25 04:44 | 35.69298 | 104.35495 | 24799 ft | 481 kts | 182° |
| 2026-04-25 04:44 | 35.65947 | 104.35511 | 24827 ft | 482 kts | 182° |
| 2026-04-25 04:44 | 35.62584 | 104.35548 | 24831 ft | 482 kts | 182° |
| 2026-04-25 04:44 | 35.59255 | 104.35598 | 24829 ft | 481 kts | 181° |
| 2026-04-25 04:45 | 35.55910 | 104.35654 | 24856 ft | 481 kts | 181° |
| 2026-04-25 04:45 | 35.52544 | 104.35712 | 24848 ft | 482 kts | 182° |
| 2026-04-25 04:45 | 35.49200 | 104.35766 | 24847 ft | 481 kts | 181° |
| 2026-04-25 04:45 | 35.45849 | 104.35814 | 24865 ft | 482 kts | 182° |
| 2026-04-25 04:46 | 35.42499 | 104.35862 | 24885 ft | 481 kts | 182° |
| 2026-04-25 04:46 | 35.39163 | 104.35912 | 24871 ft | 482 kts | 182° |
| 2026-04-25 04:46 | 35.35807 | 104.35963 | 24874 ft | 482 kts | 181° |
| 2026-04-25 04:46 | 35.32428 | 104.36014 | 24877 ft | 483 kts | 181° |
| 2026-04-25 04:47 | 35.29065 | 104.36068 | 24891 ft | 482 kts | 181° |
| 2026-04-25 04:47 | 35.25741 | 104.36121 | 24900 ft | 482 kts | 181° |
| 2026-04-25 04:47 | 35.22393 | 104.36175 | 24899 ft | 482 kts | 181° |
| 2026-04-25 04:47 | 35.19043 | 104.36227 | 24893 ft | 482 kts | 181° |
| 2026-04-25 04:48 | 35.15693 | 104.36280 | 24893 ft | 483 kts | 181° |
| 2026-04-25 04:48 | 35.12313 | 104.36335 | 24899 ft | 482 kts | 181° |
| 2026-04-25 04:48 | 35.08968 | 104.36389 | 24905 ft | 482 kts | 181° |
| 2026-04-25 04:48 | 35.05603 | 104.36443 | 24912 ft | 482 kts | 181° |
| 2026-04-25 04:49 | 35.02248 | 104.36497 | 24889 ft | 482 kts | 181° |
| 2026-04-25 04:49 | 34.98877 | 104.36549 | 24903 ft | 483 kts | 181° |
| 2026-04-25 04:49 | 34.95530 | 104.36601 | 24902 ft | 483 kts | 181° |
| 2026-04-25 04:49 | 34.92174 | 104.36655 | 24893 ft | 483 kts | 181° |
| 2026-04-25 04:50 | 34.88819 | 104.36706 | 24892 ft | 483 kts | 181° |
| 2026-04-25 04:50 | 34.85446 | 104.36761 | 24917 ft | 482 kts | 181° |
| 2026-04-25 04:50 | 34.82097 | 104.36813 | 24910 ft | 482 kts | 181° |
| 2026-04-25 04:50 | 34.78735 | 104.36866 | 24903 ft | 482 kts | 181° |
| 2026-04-25 04:51 | 34.75386 | 104.36919 | 24923 ft | 482 kts | 181° |
| 2026-04-25 04:51 | 34.72059 | 104.36973 | 24937 ft | 482 kts | 181° |
| 2026-04-25 04:51 | 34.68700 | 104.37024 | 24924 ft | 482 kts | 181° |
| 2026-04-25 04:51 | 34.65334 | 104.37077 | 24925 ft | 483 kts | 181° |
| 2026-04-25 04:52 | 34.61974 | 104.37131 | 24923 ft | 483 kts | 181° |
| 2026-04-25 04:52 | 34.58614 | 104.37185 | 24928 ft | 483 kts | 181° |
| 2026-04-25 04:52 | 34.55263 | 104.37237 | 24914 ft | 484 kts | 181° |
| 2026-04-25 04:52 | 34.51897 | 104.37289 | 24920 ft | 484 kts | 181° |
| 2026-04-25 04:53 | 34.48548 | 104.37341 | 24929 ft | 483 kts | 181° |
| 2026-04-25 04:53 | 34.45189 | 104.37394 | 24926 ft | 483 kts | 181° |
| 2026-04-25 04:53 | 34.41806 | 104.37448 | 24928 ft | 482 kts | 181° |
| 2026-04-25 04:53 | 34.38451 | 104.37501 | 24936 ft | 482 kts | 181° |
| 2026-04-25 04:54 | 34.35106 | 104.37553 | 24949 ft | 483 kts | 182° |
| 2026-04-25 04:54 | 34.31740 | 104.37606 | 24946 ft | 483 kts | 181° |
| 2026-04-25 04:54 | 34.28402 | 104.37656 | 24949 ft | 483 kts | 181° |
| 2026-04-25 04:54 | 34.25052 | 104.37709 | 24961 ft | 482 kts | 181° |
| 2026-04-25 04:55 | 34.21717 | 104.37761 | 24962 ft | 482 kts | 181° |
| 2026-04-25 04:55 | 34.18363 | 104.37813 | 24958 ft | 482 kts | 181° |
| 2026-04-25 04:55 | 34.14973 | 104.37867 | 24958 ft | 482 kts | 181° |
| 2026-04-25 04:55 | 34.11623 | 104.37919 | 24962 ft | 482 kts | 181° |
| 2026-04-25 04:56 | 34.08281 | 104.37970 | 24953 ft | 483 kts | 181° |
| 2026-04-25 04:56 | 34.04913 | 104.38023 | 24943 ft | 483 kts | 181° |
| 2026-04-25 04:56 | 34.01563 | 104.38076 | 24955 ft | 483 kts | 181° |
| 2026-04-25 04:56 | 33.98207 | 104.38129 | 24942 ft | 483 kts | 181° |
| 2026-04-25 04:57 | 33.94826 | 104.38180 | 24955 ft | 482 kts | 181° |
| 2026-04-25 04:57 | 33.91464 | 104.38233 | 24935 ft | 484 kts | 181° |
| 2026-04-25 04:57 | 33.88094 | 104.38287 | 24911 ft | 483 kts | 181° |
| 2026-04-25 04:57 | 33.84754 | 104.38340 | 24944 ft | 483 kts | 181° |
| 2026-04-25 04:58 | 33.81384 | 104.38393 | 24942 ft | 482 kts | 181° |
| 2026-04-25 04:58 | 33.78041 | 104.38447 | 24961 ft | 482 kts | 181° |
| 2026-04-25 04:58 | 33.74673 | 104.38500 | 24953 ft | 482 kts | 181° |
| 2026-04-25 04:58 | 33.71326 | 104.38553 | 24960 ft | 482 kts | 181° |
| 2026-04-25 04:59 | 33.67990 | 104.38604 | 24928 ft | 484 kts | 181° |
| 2026-04-25 04:59 | 33.64591 | 104.38666 | 24941 ft | 484 kts | 180° |
| 2026-04-25 04:59 | 33.61250 | 104.39164 | 24937 ft | 488 kts | 168° |
| 2026-04-25 04:59 | 33.58050 | 104.40406 | 24934 ft | 489 kts | 157° |
| 2026-04-25 05:00 | 33.55044 | 104.42317 | 24944 ft | 490 kts | 149° |
| 2026-04-25 05:00 | 33.52106 | 104.44468 | 24972 ft | 490 kts | 148° |
| 2026-04-25 05:00 | 33.49224 | 104.46614 | 24953 ft | 490 kts | 148° |
| 2026-04-25 05:00 | 33.46338 | 104.48740 | 24946 ft | 490 kts | 148° |
| 2026-04-25 05:01 | 33.43408 | 104.50861 | 24950 ft | 491 kts | 149° |
| 2026-04-25 05:01 | 33.40466 | 104.52891 | 24932 ft | 490 kts | 154° |
| 2026-04-25 05:01 | 33.37311 | 104.54370 | 24938 ft | 489 kts | 165° |
| 2026-04-25 05:01 | 33.34001 | 104.55171 | 24939 ft | 486 kts | 175° |
| 2026-04-25 05:02 | 33.30601 | 104.55450 | 24961 ft | 485 kts | 179° |
| 2026-04-25 05:02 | 33.27238 | 104.55632 | 24956 ft | 485 kts | 179° |
| 2026-04-25 05:02 | 33.23853 | 104.55807 | 24984 ft | 484 kts | 179° |
| 2026-04-25 05:02 | 33.20495 | 104.55988 | 24965 ft | 485 kts | 179° |
| 2026-04-25 05:03 | 33.17136 | 104.56183 | 24963 ft | 485 kts | 179° |
| 2026-04-25 05:03 | 33.13776 | 104.56389 | 24957 ft | 486 kts | 179° |
| 2026-04-25 05:03 | 33.10366 | 104.56602 | 24951 ft | 486 kts | 179° |
| 2026-04-25 05:03 | 33.07024 | 104.56812 | 24925 ft | 485 kts | 179° |
| 2026-04-25 05:04 | 33.03629 | 104.57030 | 24922 ft | 486 kts | 179° |
| 2026-04-25 05:04 | 33.00262 | 104.57246 | 24943 ft | 486 kts | 179° |
| 2026-04-25 05:04 | 32.96901 | 104.57461 | 24931 ft | 486 kts | 179° |
| 2026-04-25 05:04 | 32.93483 | 104.57679 | 24957 ft | 486 kts | 179° |
| 2026-04-25 05:05 | 32.90113 | 104.57894 | 24953 ft | 486 kts | 179° |
| 2026-04-25 05:05 | 32.86742 | 104.58110 | 24946 ft | 486 kts | 179° |
| 2026-04-25 05:05 | 32.83361 | 104.58328 | 24920 ft | 482 kts | 179° |
| 2026-04-25 05:05 | 32.80051 | 104.58541 | 24933 ft | 478 kts | 179° |
| 2026-04-25 05:06 | 32.76717 | 104.58752 | 24962 ft | 477 kts | 179° |
| 2026-04-25 05:06 | 32.73418 | 104.58931 | 24988 ft | 477 kts | 180° |
| 2026-04-25 05:06 | 32.70080 | 104.59074 | 24980 ft | 478 kts | 180° |
| 2026-04-25 05:06 | 32.66748 | 104.59214 | 24982 ft | 478 kts | 180° |
| 2026-04-25 05:07 | 32.63418 | 104.59357 | 24962 ft | 478 kts | 180° |
| 2026-04-25 05:07 | 32.60096 | 104.59504 | 24966 ft | 478 kts | 180° |
| 2026-04-25 05:07 | 32.56760 | 104.59652 | 24963 ft | 478 kts | 180° |
| 2026-04-25 05:07 | 32.53445 | 104.59801 | 24939 ft | 478 kts | 180° |
| 2026-04-25 05:08 | 32.50115 | 104.59953 | 24931 ft | 478 kts | 180° |
| 2026-04-25 05:08 | 32.46819 | 104.60105 | 24922 ft | 478 kts | 179° |
| 2026-04-25 05:08 | 32.43504 | 104.60259 | 24889 ft | 478 kts | 180° |
| 2026-04-25 05:08 | 32.40180 | 104.60414 | 24865 ft | 478 kts | 180° |
| 2026-04-25 05:09 | 32.36927 | 104.60580 | 24878 ft | 478 kts | 179° |
| 2026-04-25 05:09 | 32.33608 | 104.60760 | 24871 ft | 478 kts | 179° |
| 2026-04-25 05:09 | 32.30318 | 104.60939 | 24836 ft | 479 kts | 179° |
| 2026-04-25 05:09 | 32.26991 | 104.61122 | 24804 ft | 480 kts | 179° |
| 2026-04-25 05:10 | 32.23620 | 104.61308 | 24787 ft | 480 kts | 179° |
| 2026-04-25 05:10 | 32.20309 | 104.61491 | 24788 ft | 480 kts | 179° |
| 2026-04-25 05:10 | 32.16976 | 104.61674 | 24794 ft | 480 kts | 179° |
| 2026-04-25 05:10 | 32.13629 | 104.61858 | 24784 ft | 479 kts | 179° |
| 2026-04-25 05:11 | 32.10319 | 104.62039 | 24785 ft | 479 kts | 179° |
| 2026-04-25 05:11 | 32.06977 | 104.62222 | 24779 ft | 480 kts | 179° |
| 2026-04-25 05:11 | 32.03613 | 104.62405 | 24771 ft | 481 kts | 179° |
| 2026-04-25 05:12 | 31.96961 | 104.62770 | 24770 ft | 480 kts | 179° |
| 2026-04-25 05:12 | 31.93619 | 104.62952 | 24760 ft | 481 kts | 179° |
| 2026-04-25 05:12 | 31.90245 | 104.63137 | 24748 ft | 480 kts | 179° |
| 2026-04-25 05:12 | 31.86949 | 104.63319 | 24750 ft | 480 kts | 179° |
| 2026-04-25 05:13 | 31.83597 | 104.63502 | 24737 ft | 480 kts | 179° |
| 2026-04-25 05:13 | 31.80248 | 104.63685 | 24727 ft | 480 kts | 179° |
| 2026-04-25 05:13 | 31.76934 | 104.63868 | 24717 ft | 480 kts | 179° |
| 2026-04-25 05:13 | 31.73568 | 104.64069 | 24699 ft | 480 kts | 179° |
| 2026-04-25 05:14 | 31.70230 | 104.64278 | 24687 ft | 481 kts | 179° |
| 2026-04-25 05:14 | 31.66887 | 104.64490 | 24692 ft | 480 kts | 179° |
| 2026-04-25 05:14 | 31.63554 | 104.64701 | 24683 ft | 479 kts | 179° |
| 2026-04-25 05:15 | 31.56895 | 104.65119 | 24656 ft | 480 kts | 179° |
| 2026-04-25 05:15 | 31.53540 | 104.65327 | 24656 ft | 481 kts | 179° |
| 2026-04-25 05:15 | 31.50228 | 104.65535 | 24631 ft | 481 kts | 179° |
| 2026-04-25 05:15 | 31.46868 | 104.65746 | 24646 ft | 480 kts | 179° |
| 2026-04-25 05:16 | 31.43524 | 104.65749 | 24411 ft | 475 kts | 191° |
| 2026-04-25 05:16 | 31.40411 | 104.64615 | 24141 ft | 463 kts | 212° |
| 2026-04-25 05:16 | 31.37899 | 104.62423 | 23886 ft | 450 kts | 231° |
| 2026-04-25 05:16 | 31.36082 | 104.59515 | 23629 ft | 440 kts | 245° |
| 2026-04-25 05:17 | 31.34558 | 104.56426 | 23374 ft | 438 kts | 244° |
| 2026-04-25 05:17 | 31.33020 | 104.53364 | 23106 ft | 437 kts | 244° |
| 2026-04-25 05:17 | 31.31461 | 104.50319 | 22851 ft | 436 kts | 243° |
| 2026-04-25 05:17 | 31.29890 | 104.47299 | 22594 ft | 434 kts | 243° |
| 2026-04-25 05:18 | 31.28324 | 104.44306 | 22336 ft | 433 kts | 243° |
| 2026-04-25 05:18 | 31.26763 | 104.41335 | 22082 ft | 431 kts | 243° |
| 2026-04-25 05:18 | 31.25235 | 104.38346 | 21827 ft | 428 kts | 245° |
| 2026-04-25 05:18 | 31.23851 | 104.35288 | 21580 ft | 425 kts | 248° |
| 2026-04-25 05:19 | 31.22517 | 104.32175 | 21315 ft | 424 kts | 247° |
| 2026-04-25 05:19 | 31.21204 | 104.29103 | 21063 ft | 423 kts | 247° |
| 2026-04-25 05:19 | 31.19909 | 104.26074 | 20819 ft | 421 kts | 247° |
| 2026-04-25 05:19 | 31.18604 | 104.23032 | 20585 ft | 419 kts | 247° |
| 2026-04-25 05:20 | 31.17291 | 104.19970 | 20329 ft | 418 kts | 247° |
| 2026-04-25 05:20 | 31.16004 | 104.16973 | 20069 ft | 417 kts | 247° |
| 2026-04-25 05:20 | 31.14705 | 104.13947 | 19717 ft | 414 kts | 246° |
| 2026-04-25 05:20 | 31.13417 | 104.10955 | 19327 ft | 412 kts | 246° |
| 2026-04-25 05:21 | 31.12150 | 104.08015 | 18925 ft | 409 kts | 246° |
| 2026-04-25 05:21 | 31.10877 | 104.05064 | 18507 ft | 406 kts | 246° |
| 2026-04-25 05:21 | 31.09618 | 104.02150 | 18090 ft | 402 kts | 246° |
| 2026-04-25 05:21 | 31.08360 | 103.99236 | 17671 ft | 400 kts | 246° |
| 2026-04-25 05:22 | 31.07121 | 103.96368 | 17240 ft | 396 kts | 246° |
| 2026-04-25 05:22 | 31.05885 | 103.93510 | 16849 ft | 393 kts | 245° |
| 2026-04-25 05:22 | 31.04657 | 103.90671 | 16414 ft | 390 kts | 244° |
| 2026-04-25 05:22 | 31.03157 | 103.88097 | 15965 ft | 391 kts | 229° |
| 2026-04-25 05:23 | 31.01046 | 103.86093 | 15501 ft | 391 kts | 212° |
| 2026-04-25 05:23 | 30.98595 | 103.84769 | 15190 ft | 390 kts | 203° |
| 2026-04-25 05:23 | 30.96060 | 103.83614 | 14762 ft | 389 kts | 202° |
| 2026-04-25 05:23 | 30.93540 | 103.82467 | 14301 ft | 385 kts | 202° |
| 2026-04-25 05:24 | 30.91088 | 103.81338 | 13913 ft | 382 kts | 202° |
| 2026-04-25 05:24 | 30.88620 | 103.80192 | 13530 ft | 378 kts | 202° |
| 2026-04-25 05:24 | 30.86187 | 103.79057 | 13146 ft | 374 kts | 202° |
| 2026-04-25 05:24 | 30.83734 | 103.78124 | 12743 ft | 372 kts | 188° |
| 2026-04-25 05:25 | 30.81224 | 103.78360 | 12578 ft | 361 kts | 162° |
| 2026-04-25 05:25 | 30.79104 | 103.79805 | 12527 ft | 348 kts | 138° |
| 2026-04-25 05:25 | 30.77686 | 103.82008 | 12507 ft | 334 kts | 116° |
| 2026-04-25 05:25 | 30.76854 | 103.84467 | 12523 ft | 319 kts | 111° |
| 2026-04-25 05:26 | 30.76159 | 103.86835 | 12468 ft | 307 kts | 102° |
| 2026-04-25 05:26 | 30.76257 | 103.89258 | 12374 ft | 298 kts | 70° |
| 2026-04-25 05:26 | 30.77366 | 103.91233 | 12315 ft | 286 kts | 41° |
| 2026-04-25 05:26 | 30.79027 | 103.92387 | 12263 ft | 273 kts | 20° |
| 2026-04-25 05:27 | 30.80746 | 103.93125 | 12234 ft | 257 kts | 19° |
| 2026-04-25 05:27 | 30.82418 | 103.93842 | 12099 ft | 253 kts | 20° |
| 2026-04-25 05:27 | 30.84049 | 103.94568 | 11896 ft | 253 kts | 21° |
| 2026-04-25 05:27 | 30.85699 | 103.95322 | 11503 ft | 252 kts | 21° |
| 2026-04-25 05:28 | 30.87311 | 103.96071 | 11205 ft | 250 kts | 21° |
| 2026-04-25 05:28 | 30.88911 | 103.96819 | 10858 ft | 249 kts | 22° |
| 2026-04-25 05:28 | 30.90529 | 103.97577 | 10538 ft | 246 kts | 22° |
| 2026-04-25 05:28 | 30.92085 | 103.98307 | 10247 ft | 242 kts | 22° |
| 2026-04-25 05:29 | 30.93644 | 103.99040 | 9941 ft | 237 kts | 22° |
| 2026-04-25 05:29 | 30.95161 | 103.99749 | 9627 ft | 233 kts | 22° |
| 2026-04-25 05:29 | 30.96656 | 104.00449 | 9342 ft | 229 kts | 22° |
| 2026-04-25 05:29 | 30.98089 | 104.01218 | 9064 ft | 225 kts | 36° |
| 2026-04-25 05:30 | 30.99086 | 104.02562 | 8754 ft | 218 kts | 67° |
| 2026-04-25 05:30 | 30.99401 | 104.04217 | 8406 ft | 210 kts | 95° |
| 2026-04-25 05:30 | 30.99061 | 104.05849 | 8035 ft | 204 kts | 114° |
| 2026-04-25 05:30 | 30.98517 | 104.07345 | 7714 ft | 202 kts | 116° |
| 2026-04-25 05:31 | 30.97954 | 104.08854 | 7441 ft | 201 kts | 116° |
| 2026-04-25 05:31 | 30.97360 | 104.10307 | 7170 ft | 199 kts | 128° |
| 2026-04-25 05:31 | 30.96327 | 104.11314 | 6868 ft | 195 kts | 163° |
| 2026-04-25 05:31 | 30.94983 | 104.11503 | 6613 ft | 195 kts | 181° |
| 2026-04-25 05:32 | 30.93650 | 104.11295 | 6292 ft | 195 kts | 193° |
| 2026-04-25 05:32 | 30.92348 | 104.10821 | 5938 ft | 195 kts | 200° |
| 2026-04-25 05:32 | 30.91092 | 104.10236 | 5753 ft | 194 kts | 201° |
| 2026-04-25 05:32 | 30.89848 | 104.09634 | 5597 ft | 195 kts | 202° |
| 2026-04-25 05:33 | 30.88598 | 104.09031 | 5444 ft | 194 kts | 201° |
| 2026-04-25 05:33 | 30.87347 | 104.08433 | 5262 ft | 194 kts | 201° |
| 2026-04-25 05:33 | 30.86097 | 104.07842 | 4986 ft | 193 kts | 201° |
| 2026-04-25 05:33 | 30.84841 | 104.07252 | 4744 ft | 192 kts | 201° |
| 2026-04-25 05:34 | 30.83597 | 104.06672 | 4507 ft | 192 kts | 201° |
| 2026-04-25 05:34 | 30.82360 | 104.06097 | 4280 ft | 192 kts | 200° |
| 2026-04-25 05:34 | 30.81138 | 104.05530 | 4085 ft | 190 kts | 200° |
| 2026-04-25 05:34 | 30.79886 | 104.04950 | 3997 ft | 191 kts | 201° |
| 2026-04-25 05:35 | 30.78656 | 104.04379 | 3968 ft | 191 kts | 200° |
| 2026-04-25 05:35 | 30.77419 | 104.03805 | 3958 ft | 191 kts | 200° |
| 2026-04-25 05:35 | 30.76171 | 104.03226 | 3956 ft | 192 kts | 200° |
| 2026-04-25 05:35 | 30.74928 | 104.02649 | 3959 ft | 193 kts | 201° |
| 2026-04-25 05:36 | 30.73678 | 104.02068 | 3959 ft | 193 kts | 201° |
| 2026-04-25 05:36 | 30.72441 | 104.01493 | 3959 ft | 193 kts | 201° |
| 2026-04-25 05:36 | 30.71185 | 104.00908 | 3954 ft | 193 kts | 200° |
| 2026-04-25 05:36 | 30.69936 | 104.00327 | 3784 ft | 188 kts | 201° |
| 2026-04-25 05:37 | 30.68770 | 103.99783 | 3550 ft | 175 kts | 200° |
| 2026-04-25 05:37 | 30.67668 | 103.99270 | 3334 ft | 167 kts | 200° |
| 2026-04-25 05:37 | 30.66593 | 103.98770 | 3142 ft | 166 kts | 200° |
| 2026-04-25 05:37 | 30.65513 | 103.98268 | 2942 ft | 165 kts | 200° |
| 2026-04-25 05:38 | 30.64448 | 103.97772 | 2734 ft | 165 kts | 200° |
| 2026-04-25 05:38 | 30.63385 | 103.97277 | 2526 ft | 166 kts | 200° |
| 2026-04-25 05:38 | 30.62305 | 103.96774 | 2309 ft | 165 kts | 200° |
| 2026-04-25 05:38 | 30.61237 | 103.96280 | 2105 ft | 165 kts | 201° |
| 2026-04-25 05:39 | 30.60176 | 103.95774 | 1891 ft | 164 kts | 200° |
| 2026-04-25 05:39 | 30.59115 | 103.95285 | 1710 ft | 161 kts | 200° |
| 2026-04-25 05:39 | 30.58227 | 103.94881 | 1698 ft | 105 kts | 201° |
| 2026-04-25 05:39 | 30.57756 | 103.94656 | 1698 ft | 44 kts | 201° |
| 2026-04-25 05:40 | 30.57505 | 103.94601 | 1698 ft | 29 kts | 175° |
| 2026-04-25 05:40 | 30.57367 | 103.94630 | 1698 ft | 18 kts | 154° |
| 2026-04-25 05:40 | 30.57311 | 103.94744 | 1698 ft | 17 kts | 110° |
| 2026-04-25 05:40 | 30.57265 | 103.94876 | 1698 ft | 18 kts | 112° |
| 2026-04-25 05:41 | 30.57222 | 103.94998 | 1698 ft | 14 kts | 111° |
| 2026-04-25 05:41 | 30.57199 | 103.95079 | 1698 ft | 7 kts | 91° |
| 2026-04-25 05:41 | 30.57214 | 103.95132 | 1698 ft | 7 kts | 64° |
| 2026-04-25 05:41 | 30.57228 | 103.95160 | 1698 ft | 0 kts | 59° |
| 2026-04-25 05:42 | 30.57229 | 103.95161 | 1698 ft | 0 kts | 59° |